Main page
METAR-TAF:

METAR-TAF

Airports :

Tarbes–Lourdes–Pyrénées Airport

Tarbes Lourdes, France

latitude: 43-11N, longitude: 000-00W, elevation: 379 m

Current weather observation

The report was made 32 minutes ago, at 19:00 UTC
Wind 2 kt from variable directions
Temperature 2°C
Humidity 75%
Pressure 1033 hPa
Visibility 10 km or more
Overcast at a height of 3700 ft

METAR: LFBT 211900Z AUTO VRB02KT 9999 OVC037 02/M02 Q1033 NOSIG

Time: 20:32 (19:32 UTC)

Forecast

The report was made 2 hours and 32 minutes ago, at 17:00 UTC
Forecast valid from 21 at 18 UTC to 22 at 18 UTC
Wind 5 kt from the North/Northeast
Visibility 10 km or more
Overcast at a height of 3500 ft
Becoming
from 21 at 19 UTC to 21 at 21 UTC
Visibility 10 km or more
no clouds below 1500 m and no cumulonimbus

TAF: LFBT 211700Z 2118/2218 03005KT 9999 OVC035 BECMG 2119/2121 CAVOK

Weather observations and forecasts of more than 4000 airports (METAR and TAF reports).

The available stations are represented by yellow and red dots on the map.

Hover mouse over dot to see the name of the station.

Then click to see weather observations and forecasts.

To change the map : click on the green buttons with a black cross to zoom in, on the green button with a dash to zoom out, or on the green arrows for adjacent maps.


METAR-TAF: